Time,TemperatureF,DewpointF,PressureIn,WindDirection,WindDirectionDegrees,WindSpeedMPH,WindSpeedGustMPH,Humidity,HourlyPrecipIn,Conditions,Clouds,dailyrainin,SoftwareType,DateUTC
2013-01-21 00:00:00,13.6,-2.8,29.83,NNW,337,0.0,1.3,48,0.00,,,3.02,WUHU21623XXSP,2013-01-21 05:00:00,
2013-01-21 00:01:00,13.6,-2.8,29.83,NNW,337,0.0,1.3,48,0.00,,,3.02,WUHU21623XXSP,2013-01-21 05:01:00,
2013-01-21 00:03:00,13.6,-2.8,29.83,NNW,337,0.0,1.3,48,0.00,,,3.02,WUHU21623XXSP,2013-01-21 05:03:00,
2013-01-21 00:10:00,13.6,-2.8,29.83,NNW,337,0.0,0.0,48,0.00,,,0.00,WUHU21623XXSP,2013-01-21 05:10:00,
2013-01-21 00:15:00,13.6,-2.8,29.83,WNW,292,0.0,1.8,48,0.00,,,0.00,WUHU21623XXSP,2013-01-21 05:15:00,
2013-01-21 00:20:00,13.5,-2.9,29.82,NW,315,0.0,5.4,48,0.00,,,0.00,WUHU21623XXSP,2013-01-21 05:20:00,
2013-01-21 00:25:00,13.5,-2.9,29.82,WNW,292,2.5,5.4,48,0.00,,,0.00,WUHU21623XXSP,2013-01-21 05:25:00,
2013-01-21 00:30:00,13.1,-3.2,29.82,North,0,0.0,4.5,48,0.00,,,0.00,WUHU21623XXSP,2013-01-21 05:30:00,
2013-01-21 00:35:00,13.1,-3.2,29.82,WNW,292,1.3,4.5,48,0.00,,,0.00,WUHU21623XXSP,2013-01-21 05:35:00,
2013-01-21 00:40:00,12.9,-3.4,29.82,NW,315,0.0,1.3,48,0.00,,,0.00,WUHU21623XXSP,2013-01-21 05:40:00,
2013-01-21 00:45:00,12.6,-3.7,29.82,WNW,292,2.5,3.6,48,0.00,,,0.00,WUHU21623XXSP,2013-01-21 05:45:00,
2013-01-21 00:50:00,12.6,-3.7,29.82,NW,315,1.8,3.6,48,0.00,,,0.00,WUHU21623XXSP,2013-01-21 05:50:00,
2013-01-21 00:55:00,12.7,-3.6,29.81,NNW,337,2.2,2.7,48,0.00,,,0.00,WUHU21623XXSP,2013-01-21 05:55:00,
2013-01-21 01:00:00,12.6,-3.7,29.81,WSW,247,0.0,2.7,48,0.00,,,0.00,WUHU21623XXSP,2013-01-21 06:00:00,
2013-01-21 01:05:00,12.9,-3.4,29.81,WNW,292,0.0,2.7,48,0.00,,,0.00,WUHU21623XXSP,2013-01-21 06:05:00,
2013-01-21 01:10:00,12.9,-3.4,29.80,NNW,337,0.0,2.0,48,0.00,,,0.00,WUHU21623XXSP,2013-01-21 06:10:00,
2013-01-21 01:15:00,12.9,-3.4,29.80,NNW,337,2.5,2.5,48,0.00,,,0.00,WUHU21623XXSP,2013-01-21 06:15:00,
2013-01-21 01:20:00,12.9,-3.4,29.80,NNW,337,1.1,2.5,48,0.00,,,0.00,WUHU21623XXSP,2013-01-21 06:20:00,
2013-01-21 01:25:00,12.9,-3.4,29.79,NW,315,0.0,1.6,48,0.00,,,0.00,WUHU21623XXSP,2013-01-21 06:25:00,
2013-01-21 01:30:00,12.7,-3.6,29.79,NW,315,1.3,1.3,48,0.00,,,0.00,WUHU21623XXSP,2013-01-21 06:30:00,
2013-01-21 01:35:00,12.7,-3.6,29.79,NW,315,0.0,2.0,48,0.00,,,0.00,WUHU21623XXSP,2013-01-21 06:35:00,
2013-01-21 01:40:00,12.9,-3.4,29.79,North,0,0.0,2.5,48,0.00,,,0.00,WUHU21623XXSP,2013-01-21 06:40:00,
2013-01-21 01:45:00,12.9,-3.4,29.79,NNW,337,1.3,2.5,48,0.00,,,0.00,WUHU21623XXSP,2013-01-21 06:45:00,
2013-01-21 01:50:00,12.7,-3.6,29.79,NNW,337,2.5,3.1,48,0.00,,,0.00,WUHU21623XXSP,2013-01-21 06:50:00,
2013-01-21 01:55:00,12.6,-3.7,29.79,NNW,337,0.0,3.8,48,0.00,,,0.00,WUHU21623XXSP,2013-01-21 06:55:00,
2013-01-21 02:00:00,12.6,-3.7,29.79,NNW,337,0.0,3.8,48,0.00,,,0.00,WUHU21623XXSP,2013-01-21 07:00:00,
2013-01-21 02:05:00,12.4,-3.9,29.79,NNW,337,1.1,1.1,48,0.00,,,0.00,WUHU21623XXSP,2013-01-21 07:05:00,
2013-01-21 02:10:00,12.6,-3.7,29.79,NNW,337,0.0,1.1,48,0.00,,,0.00,WUHU21623XXSP,2013-01-21 07:10:00,
2013-01-21 02:15:00,12.6,-3.7,29.79,NNW,337,0.0,0.0,48,0.00,,,0.00,WUHU21623XXSP,2013-01-21 07:15:00,
2013-01-21 02:20:00,12.6,-3.7,29.79,NNW,337,0.0,0.0,48,0.00,,,0.00,WUHU21623XXSP,2013-01-21 07:20:00,
2013-01-21 02:26:00,12.6,-3.7,29.79,NNW,337,0.0,0.0,48,0.00,,,0.00,WUHU21623XXSP,2013-01-21 07:26:00,
2013-01-21 02:31:00,12.6,-3.7,29.79,NNW,337,0.0,0.0,48,0.00,,,0.00,WUHU21623XXSP,2013-01-21 07:31:00,
2013-01-21 02:36:00,12.6,-3.7,29.79,NNW,337,0.0,0.0,48,0.00,,,0.00,WUHU21623XXSP,2013-01-21 07:36:00,
2013-01-21 02:41:00,12.6,-3.7,29.79,NNW,337,0.0,0.0,48,0.00,,,0.00,WUHU21623XXSP,2013-01-21 07:41:00,
2013-01-21 02:47:00,12.4,-3.9,29.79,NNW,337,0.0,0.0,48,0.00,,,0.00,WUHU21623XXSP,2013-01-21 07:47:00,
2013-01-21 02:52:00,12.4,-3.9,29.78,NNW,337,0.0,0.0,48,0.00,,,0.00,WUHU21623XXSP,2013-01-21 07:52:00,
2013-01-21 02:57:00,12.0,-4.3,29.79,NNW,337,0.0,0.0,48,0.00,,,0.00,WUHU21623XXSP,2013-01-21 07:57:00,
2013-01-21 03:02:00,11.8,-4.4,29.78,NNW,337,0.0,0.0,48,0.00,,,0.00,WUHU21623XXSP,2013-01-21 08:02:00,
2013-01-21 03:07:00,11.8,-4.4,29.78,NNW,337,0.0,0.0,48,0.00,,,0.00,WUHU21623XXSP,2013-01-21 08:07:00,
2013-01-21 03:12:00,11.7,-4.5,29.78,NNW,337,0.0,0.0,48,0.00,,,0.00,WUHU21623XXSP,2013-01-21 08:12:00,
2013-01-21 03:17:00,11.7,-4.5,29.78,NNW,337,0.0,0.0,48,0.00,,,0.00,WUHU21623XXSP,2013-01-21 08:17:00,
2013-01-21 03:22:00,11.5,-4.7,29.78,NNW,337,0.0,0.0,48,0.00,,,0.00,WUHU21623XXSP,2013-01-21 08:22:00,
2013-01-21 03:27:00,11.3,-4.9,29.77,NNW,337,0.0,0.0,48,0.00,,,0.00,WUHU21623XXSP,2013-01-21 08:27:00,
2013-01-21 03:32:00,11.1,-5.1,29.77,NNW,337,0.0,0.0,48,0.00,,,0.00,WUHU21623XXSP,2013-01-21 08:32:00,
2013-01-21 03:37:00,10.9,-5.3,29.77,NNW,337,0.0,0.0,48,0.00,,,0.00,WUHU21623XXSP,2013-01-21 08:37:00,
2013-01-21 03:42:00,10.8,-5.4,29.77,NNW,337,0.0,0.0,48,0.00,,,0.00,WUHU21623XXSP,2013-01-21 08:42:00,
2013-01-21 03:47:00,10.8,-5.4,29.77,NNW,337,0.0,0.0,48,0.00,,,0.00,WUHU21623XXSP,2013-01-21 08:47:00,
2013-01-21 03:52:00,11.1,-5.1,29.77,NNW,337,0.0,0.0,48,0.00,,,0.00,WUHU21623XXSP,2013-01-21 08:52:00,
2013-01-21 03:57:00,11.1,-5.1,29.76,NNW,337,0.0,0.0,48,0.00,,,0.00,WUHU21623XXSP,2013-01-21 08:57:00,
2013-01-21 04:02:00,11.3,-4.9,29.76,NNW,337,0.0,0.0,48,0.00,,,0.00,WUHU21623XXSP,2013-01-21 09:02:00,
2013-01-21 04:07:00,11.7,-4.5,29.76,NNW,337,0.0,0.0,48,0.00,,,0.00,WUHU21623XXSP,2013-01-21 09:07:00,
2013-01-21 04:12:00,11.8,-4.4,29.76,NNW,337,0.0,0.0,48,0.00,,,0.00,WUHU21623XXSP,2013-01-21 09:12:00,
2013-01-21 04:18:00,11.8,-4.4,29.75,NNW,337,0.0,0.0,48,0.00,,,0.00,WUHU21623XXSP,2013-01-21 09:18:00,
2013-01-21 04:23:00,12.4,-3.9,29.75,NNW,337,0.0,0.0,48,0.00,,,0.00,WUHU21623XXSP,2013-01-21 09:23:00,
2013-01-21 04:28:00,12.6,-3.7,29.74,NNW,337,0.0,0.0,48,0.00,,,0.00,WUHU21623XXSP,2013-01-21 09:28:00,
2013-01-21 04:33:00,12.9,-3.4,29.74,NNW,337,0.0,0.0,48,0.00,,,0.00,WUHU21623XXSP,2013-01-21 09:33:00,
2013-01-21 04:38:00,12.9,-3.4,29.74,NNW,337,0.0,0.0,48,0.00,,,0.00,WUHU21623XXSP,2013-01-21 09:38:00,
2013-01-21 04:43:00,13.1,-3.2,29.74,North,0,0.0,0.0,48,0.00,,,0.00,WUHU21623XXSP,2013-01-21 09:43:00,
2013-01-21 04:48:00,13.1,-3.2,29.74,East,90,0.0,0.0,48,0.00,,,0.00,WUHU21623XXSP,2013-01-21 09:48:00,
2013-01-21 04:53:00,13.1,-3.2,29.73,East,90,0.0,0.0,48,0.00,,,0.00,WUHU21623XXSP,2013-01-21 09:53:00,
2013-01-21 04:58:00,13.5,-2.9,29.73,SSE,157,0.0,0.0,48,0.00,,,0.00,WUHU21623XXSP,2013-01-21 09:58:00,
2013-01-21 05:03:00,13.8,-2.6,29.73,SSE,157,0.9,0.9,48,0.00,,,0.00,WUHU21623XXSP,2013-01-21 10:03:00,
2013-01-21 05:08:00,13.8,-2.6,29.73,SSE,157,0.0,0.9,48,0.00,,,0.00,WUHU21623XXSP,2013-01-21 10:08:00,
2013-01-21 05:13:00,13.6,-2.8,29.72,SSE,157,2.9,2.9,48,0.00,,,0.00,WUHU21623XXSP,2013-01-21 10:13:00,
2013-01-21 05:18:00,14.0,-2.4,29.72,SSE,157,0.0,2.9,48,0.00,,,0.00,WUHU21623XXSP,2013-01-21 10:18:00,
2013-01-21 05:23:00,14.2,-2.2,29.72,South,180,0.0,0.9,48,0.00,,,0.00,WUHU21623XXSP,2013-01-21 10:23:00,
2013-01-21 05:28:00,14.0,-2.4,29.72,SE,135,2.9,2.9,48,0.00,,,0.00,WUHU21623XXSP,2013-01-21 10:28:00,
2013-01-21 05:33:00,14.2,-2.2,29.72,SSE,157,1.6,2.9,48,0.00,,,0.00,WUHU21623XXSP,2013-01-21 10:33:00,
2013-01-21 05:38:00,14.2,-2.2,29.72,SSE,157,0.7,1.6,48,0.00,,,0.00,WUHU21623XXSP,2013-01-21 10:38:00,
2013-01-21 05:43:00,14.2,-2.2,29.72,SSE,157,0.9,2.7,48,0.00,,,0.00,WUHU21623XXSP,2013-01-21 10:43:00,
2013-01-21 05:48:00,14.2,-2.2,29.72,SE,135,0.0,2.7,48,0.00,,,0.00,WUHU21623XXSP,2013-01-21 10:48:00,
2013-01-21 05:53:00,14.2,-2.2,29.71,SSE,157,2.0,2.5,48,0.00,,,0.00,WUHU21623XXSP,2013-01-21 10:53:00,
2013-01-21 05:58:00,14.4,-2.0,29.71,SSE,157,1.1,2.5,48,0.00,,,0.00,WUHU21623XXSP,2013-01-21 10:58:00,
2013-01-21 06:03:00,14.4,-2.0,29.71,SSE,157,0.0,3.6,48,0.00,,,0.00,WUHU21623XXSP,2013-01-21 11:03:00,
2013-01-21 06:08:00,14.4,-2.0,29.71,SSE,157,3.4,3.6,48,0.00,,,0.00,WUHU21623XXSP,2013-01-21 11:08:00,
2013-01-21 06:13:00,14.4,-2.0,29.70,SSE,157,0.0,3.4,48,0.00,,,0.00,WUHU21623XXSP,2013-01-21 11:13:00,
2013-01-21 06:18:00,14.4,-2.0,29.70,SSE,157,0.0,0.0,48,0.00,,,0.00,WUHU21623XXSP,2013-01-21 11:18:00,
2013-01-21 06:23:00,14.4,-2.0,29.70,SSE,157,0.0,0.0,48,0.00,,,0.00,WUHU21623XXSP,2013-01-21 11:23:00,
2013-01-21 06:28:00,14.4,-2.0,29.70,SSE,157,0.0,1.1,48,0.00,,,0.00,WUHU21623XXSP,2013-01-21 11:28:00,
2013-01-21 06:33:00,14.5,-2.0,29.70,SSE,157,0.0,1.1,48,0.00,,,0.00,WUHU21623XXSP,2013-01-21 11:33:00,
2013-01-21 06:38:00,14.5,-2.0,29.69,SSE,157,0.0,0.0,48,0.00,,,0.00,WUHU21623XXSP,2013-01-21 11:38:00,
2013-01-21 06:43:00,14.5,-2.0,29.69,SSE,157,0.7,1.1,48,0.00,,,0.00,WUHU21623XXSP,2013-01-21 11:43:00,
2013-01-21 06:48:00,14.5,-2.0,29.69,SSE,157,0.0,1.1,48,0.00,,,0.00,WUHU21623XXSP,2013-01-21 11:48:00,
2013-01-21 06:53:00,14.5,-2.0,29.70,SSE,157,2.2,2.2,48,0.00,,,0.00,WUHU21623XXSP,2013-01-21 11:53:00,
2013-01-21 06:58:00,14.5,-2.0,29.69,SSE,157,0.0,2.2,48,0.00,,,0.00,WUHU21623XXSP,2013-01-21 11:58:00,
2013-01-21 07:03:00,14.7,-1.8,29.69,SSE,157,0.0,1.8,48,0.00,,,0.00,WUHU21623XXSP,2013-01-21 12:03:00,
2013-01-21 07:08:00,14.7,-1.8,29.69,South,180,0.0,0.0,48,0.00,,,0.00,WUHU21623XXSP,2013-01-21 12:08:00,
2013-01-21 07:13:00,14.7,-1.8,29.69,SSE,157,0.0,0.0,48,0.00,,,0.00,WUHU21623XXSP,2013-01-21 12:13:00,
2013-01-21 07:18:00,14.7,-1.8,29.69,SSE,157,0.0,0.0,48,0.00,,,0.00,WUHU21623XXSP,2013-01-21 12:18:00,
2013-01-21 07:23:00,14.7,-1.8,29.69,SSE,157,0.0,0.0,48,0.00,,,0.00,WUHU21623XXSP,2013-01-21 12:23:00,
2013-01-21 07:28:00,14.7,-1.8,29.69,South,180,3.4,3.4,48,0.00,,,0.00,WUHU21623XXSP,2013-01-21 12:28:00,
2013-01-21 07:33:00,14.9,-1.6,29.69,South,180,0.0,3.4,48,0.00,,,0.00,WUHU21623XXSP,2013-01-21 12:33:00,
2013-01-21 07:38:00,14.9,-1.6,29.69,South,180,0.0,0.0,48,0.00,,,0.00,WUHU21623XXSP,2013-01-21 12:38:00,
2013-01-21 07:43:00,14.9,-1.6,29.68,South,180,0.0,0.0,48,0.00,,,0.00,WUHU21623XXSP,2013-01-21 12:43:00,
2013-01-21 07:48:00,14.9,-1.6,29.68,South,180,0.0,0.0,48,0.00,,,0.00,WUHU21623XXSP,2013-01-21 12:48:00,
2013-01-21 07:53:00,14.9,-1.6,29.68,SSE,157,0.0,1.1,48,0.00,,,0.00,WUHU21623XXSP,2013-01-21 12:53:00,
2013-01-21 07:58:00,15.1,-1.4,29.68,WSW,247,0.0,1.1,48,0.00,,,0.00,WUHU21623XXSP,2013-01-21 12:58:00,
2013-01-21 08:03:00,15.1,-1.4,29.68,WSW,247,0.0,0.0,48,0.00,,,0.00,WUHU21623XXSP,2013-01-21 13:03:00,
2013-01-21 08:08:00,15.3,-1.2,29.68,WSW,247,0.0,0.0,48,0.00,,,0.00,WUHU21623XXSP,2013-01-21 13:08:00,
2013-01-21 08:13:00,15.3,-1.2,29.68,West,270,0.0,0.0,48,0.00,,,0.00,WUHU21623XXSP,2013-01-21 13:13:00,
2013-01-21 08:19:00,15.3,-1.2,29.68,West,270,0.0,0.0,48,0.00,,,0.00,WUHU21623XXSP,2013-01-21 13:19:00,
2013-01-21 08:24:00,15.1,-1.4,29.68,NNW,337,0.0,0.0,48,0.00,,,0.00,WUHU21623XXSP,2013-01-21 13:24:00,
2013-01-21 08:28:00,14.9,-1.6,29.69,NNW,337,0.0,0.0,48,0.00,,,0.00,WUHU21623XXSP,2013-01-21 13:28:00,
2013-01-21 08:33:00,14.7,-1.8,29.68,NNW,337,0.0,0.0,48,0.00,,,0.00,WUHU21623XXSP,2013-01-21 13:33:00,
2013-01-21 08:39:00,14.7,-1.8,29.69,NNW,337,0.0,0.0,48,0.00,,,0.00,WUHU21623XXSP,2013-01-21 13:39:00,
2013-01-21 08:44:00,14.7,-1.8,29.69,WNW,292,0.0,0.0,48,0.00,,,0.00,WUHU21623XXSP,2013-01-21 13:44:00,
2013-01-21 08:49:00,14.5,-2.0,29.69,NNW,337,0.0,0.0,48,0.00,,,0.00,WUHU21623XXSP,2013-01-21 13:49:00,
2013-01-21 08:54:00,14.4,-2.0,29.69,WNW,292,0.0,0.0,48,0.00,,,0.00,WUHU21623XXSP,2013-01-21 13:54:00,
2013-01-21 08:59:00,14.4,-2.0,29.69,NW,315,0.0,0.0,48,0.00,,,0.00,WUHU21623XXSP,2013-01-21 13:59:00,
2013-01-21 09:04:00,14.4,-2.0,29.69,WNW,292,0.0,0.0,48,0.00,,,0.00,WUHU21623XXSP,2013-01-21 14:04:00,
2013-01-21 09:09:00,14.4,-2.0,29.69,North,0,0.0,0.0,48,0.00,,,0.00,WUHU21623XXSP,2013-01-21 14:09:00,
2013-01-21 09:14:00,14.4,-2.0,29.69,NNW,337,0.0,0.0,48,0.00,,,0.00,WUHU21623XXSP,2013-01-21 14:14:00,
2013-01-21 09:19:00,14.2,-2.2,29.69,NW,315,0.0,0.0,48,0.00,,,0.00,WUHU21623XXSP,2013-01-21 14:19:00,
2013-01-21 09:24:00,13.3,-3.1,29.69,WNW,292,0.0,0.0,48,0.00,,,0.00,WUHU21623XXSP,2013-01-21 14:24:00,
2013-01-21 09:29:00,13.1,-3.2,29.68,WNW,292,0.0,0.0,48,0.00,,,0.00,WUHU21623XXSP,2013-01-21 14:29:00,
2013-01-21 09:34:00,13.1,-3.2,29.69,NW,315,0.0,0.0,48,0.00,,,0.00,WUHU21623XXSP,2013-01-21 14:34:00,
2013-01-21 09:39:00,13.1,-3.2,29.68,North,0,0.0,0.0,48,0.00,,,0.00,WUHU21623XXSP,2013-01-21 14:39:00,
2013-01-21 09:44:00,13.1,-3.2,29.69,West,270,0.0,0.0,48,0.00,,,0.00,WUHU21623XXSP,2013-01-21 14:44:00,
2013-01-21 09:49:00,13.1,-3.2,29.69,WNW,292,0.0,0.0,48,0.00,,,0.00,WUHU21623XXSP,2013-01-21 14:49:00,
2013-01-21 09:54:00,13.3,-3.1,29.69,West,270,0.0,0.0,48,0.00,,,0.00,WUHU21623XXSP,2013-01-21 14:54:00,
2013-01-21 09:59:00,13.6,-2.8,29.69,SE,135,0.0,0.0,48,0.00,,,0.00,WUHU21623XXSP,2013-01-21 14:59:00,
2013-01-21 10:04:00,13.8,-2.6,29.69,NNW,337,0.0,0.0,48,0.00,,,0.00,WUHU21623XXSP,2013-01-21 15:04:00,
2013-01-21 10:09:00,14.2,-2.2,29.69,NNW,337,0.0,0.0,48,0.00,,,0.00,WUHU21623XXSP,2013-01-21 15:09:00,
2013-01-21 10:14:00,14.2,-2.2,29.69,NNW,337,0.0,0.0,48,0.00,,,0.00,WUHU21623XXSP,2013-01-21 15:14:00,
2013-01-21 10:19:00,14.2,-2.2,29.69,NNW,337,0.0,0.0,48,0.00,,,0.00,WUHU21623XXSP,2013-01-21 15:19:00,
2013-01-21 10:24:00,14.2,-2.2,29.69,NNW,337,0.0,0.0,48,0.00,,,0.00,WUHU21623XXSP,2013-01-21 15:24:00,
2013-01-21 10:29:00,14.2,-2.2,29.69,West,270,0.0,0.0,48,0.00,,,0.00,WUHU21623XXSP,2013-01-21 15:29:00,
2013-01-21 10:34:00,14.2,-2.2,29.69,WNW,292,0.0,0.0,48,0.00,,,0.00,WUHU21623XXSP,2013-01-21 15:34:00,
2013-01-21 10:39:00,14.4,-2.0,29.69,NW,315,0.0,0.0,48,0.00,,,0.00,WUHU21623XXSP,2013-01-21 15:39:00,
2013-01-21 10:44:00,14.7,-1.8,29.68,WNW,292,0.0,0.0,48,0.00,,,0.00,WUHU21623XXSP,2013-01-21 15:44:00,
2013-01-21 10:49:00,14.7,-1.8,29.68,NW,315,0.0,0.0,48,0.00,,,0.00,WUHU21623XXSP,2013-01-21 15:49:00,
2013-01-21 10:54:00,14.5,-2.0,29.68,WNW,292,0.0,0.0,48,0.00,,,0.00,WUHU21623XXSP,2013-01-21 15:54:00,
2013-01-21 10:59:00,14.5,-2.0,29.68,NW,315,0.0,0.0,48,0.00,,,0.00,WUHU21623XXSP,2013-01-21 15:59:00,
2013-01-21 11:04:00,14.4,-2.0,29.68,WNW,292,0.0,0.0,48,0.00,,,0.00,WUHU21623XXSP,2013-01-21 16:04:00,
2013-01-21 11:09:00,14.5,-2.0,29.68,WSW,247,0.0,0.0,48,0.00,,,0.00,WUHU21623XXSP,2013-01-21 16:09:00,
2013-01-21 11:14:00,14.9,-1.6,29.68,West,270,3.4,3.4,48,0.00,,,0.00,WUHU21623XXSP,2013-01-21 16:14:00,
2013-01-21 11:19:00,15.6,-0.9,29.67,NNW,337,3.1,6.7,48,0.00,,,0.00,WUHU21623XXSP,2013-01-21 16:19:00,
2013-01-21 11:24:00,16.0,-0.6,29.67,WNW,292,4.5,6.7,48,0.00,,,0.00,WUHU21623XXSP,2013-01-21 16:24:00,
2013-01-21 11:29:00,16.0,-0.6,29.67,WNW,292,5.1,5.1,48,0.00,,,0.00,WUHU21623XXSP,2013-01-21 16:29:00,
2013-01-21 11:34:00,15.8,-0.8,29.67,NW,315,1.8,5.1,48,0.00,,,0.00,WUHU21623XXSP,2013-01-21 16:34:00,
2013-01-21 11:39:00,15.6,-0.9,29.66,NNW,337,6.0,6.0,48,0.00,,,0.00,WUHU21623XXSP,2013-01-21 16:39:00,
2013-01-21 11:44:00,14.9,-1.6,29.66,WNW,292,4.0,6.0,48,0.00,,,0.00,WUHU21623XXSP,2013-01-21 16:44:00,
2013-01-21 11:49:00,14.7,-1.8,29.66,WNW,292,0.0,5.1,48,0.00,,,0.00,WUHU21623XXSP,2013-01-21 16:49:00,
2013-01-21 11:54:00,14.9,-1.6,29.66,NNW,337,4.5,4.5,48,0.00,,,0.00,WUHU21623XXSP,2013-01-21 16:54:00,
2013-01-21 11:59:00,15.4,-1.1,29.65,NW,315,2.0,4.5,48,0.00,,,0.00,WUHU21623XXSP,2013-01-21 16:59:00,
2013-01-21 12:04:00,16.0,-0.6,29.64,NNW,337,4.9,5.4,48,0.00,,,0.00,WUHU21623XXSP,2013-01-21 17:04:00,
2013-01-21 12:09:00,16.3,-0.3,29.65,WNW,292,4.0,5.4,48,0.00,,,0.00,WUHU21623XXSP,2013-01-21 17:09:00,
2013-01-21 12:14:00,15.6,-0.9,29.64,WNW,292,5.1,5.1,48,0.00,,,0.00,WUHU21623XXSP,2013-01-21 17:14:00,
2013-01-21 12:19:00,15.1,-1.4,29.64,NNW,337,1.6,5.1,48,0.00,,,0.00,WUHU21623XXSP,2013-01-21 17:19:00,
2013-01-21 12:24:00,14.9,-1.6,29.64,North,0,0.0,5.8,48,0.00,,,0.00,WUHU21623XXSP,2013-01-21 17:24:00,
2013-01-21 12:29:00,14.5,-2.0,29.64,NNW,337,3.1,7.8,48,0.00,,,0.00,WUHU21623XXSP,2013-01-21 17:29:00,
2013-01-21 12:34:00,14.4,-2.0,29.64,NNW,337,2.2,7.8,48,0.00,,,0.00,WUHU21623XXSP,2013-01-21 17:34:00,
2013-01-21 12:39:00,14.5,-2.0,29.64,WNW,292,3.8,3.8,48,0.00,,,0.00,WUHU21623XXSP,2013-01-21 17:39:00,
2013-01-21 12:44:00,14.5,-2.0,29.64,North,0,5.4,5.4,48,0.00,,,0.00,WUHU21623XXSP,2013-01-21 17:44:00,
2013-01-21 12:49:00,14.7,-1.8,29.64,NW,315,3.1,5.4,48,0.00,,,0.00,WUHU21623XXSP,2013-01-21 17:49:00,
2013-01-21 12:54:00,14.7,-1.8,29.64,WNW,292,5.4,5.4,48,0.00,,,0.00,WUHU21623XXSP,2013-01-21 17:54:00,
2013-01-21 12:59:00,14.9,-1.6,29.64,NNW,337,2.0,5.4,48,0.00,,,0.00,WUHU21623XXSP,2013-01-21 17:59:00,
2013-01-21 13:04:00,14.9,-1.6,29.64,WNW,292,5.4,5.4,48,0.00,,,0.00,WUHU21623XXSP,2013-01-21 18:04:00,
2013-01-21 13:09:00,14.7,-1.8,29.64,WNW,292,4.9,5.4,48,0.00,,,0.00,WUHU21623XXSP,2013-01-21 18:09:00,
2013-01-21 13:14:00,14.4,-2.0,29.63,WNW,292,2.9,6.0,48,0.00,,,0.00,WUHU21623XXSP,2013-01-21 18:14:00,
2013-01-21 13:19:00,14.4,-2.0,29.64,NW,315,3.8,6.0,48,0.00,,,0.00,WUHU21623XXSP,2013-01-21 18:19:00,
2013-01-21 13:24:00,14.7,-1.8,29.64,NW,315,1.6,4.9,48,0.00,,,0.00,WUHU21623XXSP,2013-01-21 18:24:00,
2013-01-21 13:29:00,14.7,-1.8,29.63,NNW,337,3.4,4.9,48,0.00,,,0.00,WUHU21623XXSP,2013-01-21 18:29:00,
2013-01-21 13:34:00,14.7,-1.8,29.64,NNW,337,1.6,4.7,48,0.00,,,0.00,WUHU21623XXSP,2013-01-21 18:34:00,
2013-01-21 13:39:00,14.4,-2.0,29.64,SW,225,5.4,5.4,48,0.00,,,0.00,WUHU21623XXSP,2013-01-21 18:39:00,
2013-01-21 13:44:00,14.2,-2.2,29.64,West,270,0.0,5.4,48,0.00,,,0.00,WUHU21623XXSP,2013-01-21 18:44:00,
2013-01-21 13:49:00,14.2,-2.2,29.64,WNW,292,1.6,3.8,48,0.00,,,0.00,WUHU21623XXSP,2013-01-21 18:49:00,
2013-01-21 13:54:00,13.6,-2.8,29.64,SW,225,5.6,5.6,48,0.00,,,0.00,WUHU21623XXSP,2013-01-21 18:54:00,
2013-01-21 13:59:00,13.8,-2.6,29.64,West,270,4.3,5.6,48,0.00,,,0.00,WUHU21623XXSP,2013-01-21 18:59:00,
2013-01-21 14:04:00,14.4,-2.0,29.64,WSW,247,1.8,4.5,48,0.00,,,0.00,WUHU21623XXSP,2013-01-21 19:04:00,
2013-01-21 14:09:00,15.3,-1.2,29.64,NNW,337,2.0,2.5,48,0.00,,,0.00,WUHU21623XXSP,2013-01-21 19:09:00,
2013-01-21 14:14:00,14.9,-1.6,29.64,North,0,3.6,3.6,48,0.00,,,0.00,WUHU21623XXSP,2013-01-21 19:14:00,
2013-01-21 14:19:00,14.5,-2.0,29.64,WNW,292,4.3,4.3,48,0.00,,,0.00,WUHU21623XXSP,2013-01-21 19:19:00,
2013-01-21 14:24:00,13.8,-2.6,29.64,WSW,247,0.0,5.4,48,0.00,,,0.00,WUHU21623XXSP,2013-01-21 19:24:00,
2013-01-21 14:29:00,13.5,-2.9,29.64,NNW,337,4.3,5.4,48,0.00,,,0.00,WUHU21623XXSP,2013-01-21 19:29:00,
2013-01-21 14:34:00,13.1,-3.2,29.64,NW,315,5.6,5.6,48,0.00,,,0.00,WUHU21623XXSP,2013-01-21 19:34:00,
2013-01-21 14:39:00,12.6,-3.7,29.64,WNW,292,4.0,5.6,48,0.00,,,0.00,WUHU21623XXSP,2013-01-21 19:39:00,
2013-01-21 14:44:00,12.6,-3.7,29.64,WSW,247,3.1,5.4,48,0.00,,,0.00,WUHU21623XXSP,2013-01-21 19:44:00,
2013-01-21 14:49:00,12.9,-3.4,29.64,WSW,247,4.9,4.9,48,0.00,,,0.00,WUHU21623XXSP,2013-01-21 19:49:00,
2013-01-21 14:54:00,13.1,-3.2,29.64,WNW,292,1.3,4.9,48,0.00,,,0.00,WUHU21623XXSP,2013-01-21 19:54:00,
2013-01-21 14:59:00,13.6,-2.8,29.64,South,180,0.0,6.0,48,0.00,,,0.00,WUHU21623XXSP,2013-01-21 19:59:00,
2013-01-21 15:04:00,14.0,-2.4,29.65,NW,315,4.7,6.0,48,0.00,,,0.00,WUHU21623XXSP,2013-01-21 20:04:00,
2013-01-21 15:10:00,14.2,-2.2,29.65,North,0,5.4,5.4,48,0.00,,,0.00,WUHU21623XXSP,2013-01-21 20:10:00,
2013-01-21 15:15:00,13.3,-3.1,29.66,West,270,5.6,5.6,48,0.00,,,0.00,WUHU21623XXSP,2013-01-21 20:15:00,
2013-01-21 15:20:00,12.4,-3.9,29.66,WNW,292,2.5,5.6,48,0.00,,,0.00,WUHU21623XXSP,2013-01-21 20:20:00,
2013-01-21 15:25:00,12.4,-3.9,29.67,WNW,292,1.1,5.1,48,0.00,,,0.00,WUHU21623XXSP,2013-01-21 20:25:00,
2013-01-21 15:30:00,12.4,-3.9,29.66,WNW,292,5.6,5.6,48,0.00,,,0.00,WUHU21623XXSP,2013-01-21 20:30:00,
2013-01-21 15:35:00,11.8,-4.4,29.67,North,0,3.8,5.6,48,0.00,,,0.00,WUHU21623XXSP,2013-01-21 20:35:00,
2013-01-21 15:40:00,11.8,-4.4,29.67,West,270,0.0,3.8,48,0.00,,,0.00,WUHU21623XXSP,2013-01-21 20:40:00,
2013-01-21 15:45:00,11.7,-4.5,29.68,WNW,292,3.1,3.1,48,0.00,,,0.00,WUHU21623XXSP,2013-01-21 20:45:00,
2013-01-21 15:50:00,11.3,-4.9,29.68,WSW,247,0.0,3.8,48,0.00,,,0.00,WUHU21623XXSP,2013-01-21 20:50:00,
2013-01-21 15:55:00,11.3,-4.9,29.68,SW,225,3.1,3.8,48,0.00,,,0.00,WUHU21623XXSP,2013-01-21 20:55:00,
2013-01-21 16:00:00,11.1,-5.1,29.68,WNW,292,3.4,4.7,48,0.00,,,0.00,WUHU21623XXSP,2013-01-21 21:00:00,
2013-01-21 16:05:00,11.1,-5.1,29.68,NW,315,5.4,5.4,48,0.00,,,0.00,WUHU21623XXSP,2013-01-21 21:05:00,
2013-01-21 16:10:00,10.9,-5.3,29.69,WNW,292,6.5,6.5,48,0.00,,,0.00,WUHU21623XXSP,2013-01-21 21:10:00,
2013-01-21 16:15:00,10.0,-6.1,29.69,NNW,337,6.0,6.5,48,0.00,,,0.00,WUHU21623XXSP,2013-01-21 21:15:00,
2013-01-21 16:20:00,9.9,-6.2,29.69,North,0,2.7,6.0,48,0.00,,,0.00,WUHU21623XXSP,2013-01-21 21:20:00,
2013-01-21 16:25:00,9.7,-6.4,29.70,NNW,337,1.6,4.5,48,0.00,,,0.00,WUHU21623XXSP,2013-01-21 21:25:00,
2013-01-21 16:30:00,9.7,-6.4,29.69,SW,225,1.8,3.6,48,0.00,,,0.00,WUHU21623XXSP,2013-01-21 21:30:00,
2013-01-21 16:35:00,9.7,-6.4,29.69,NW,315,4.7,4.7,48,0.00,,,0.00,WUHU21623XXSP,2013-01-21 21:35:00,
2013-01-21 16:40:00,9.7,-6.4,29.69,NW,315,3.4,4.7,48,0.00,,,0.00,WUHU21623XXSP,2013-01-21 21:40:00,
2013-01-21 16:45:00,9.5,-6.6,29.69,WSW,247,1.8,5.6,48,0.00,,,0.00,WUHU21623XXSP,2013-01-21 21:45:00,
2013-01-21 16:50:00,9.5,-6.6,29.70,NW,315,1.3,5.6,48,0.00,,,0.00,WUHU21623XXSP,2013-01-21 21:50:00,
2013-01-21 16:55:00,9.5,-6.6,29.70,North,0,3.8,3.8,48,0.00,,,0.00,WUHU21623XXSP,2013-01-21 21:55:00,
2013-01-21 17:00:00,9.3,-6.7,29.70,NNW,337,6.9,6.9,48,0.00,,,0.00,WUHU21623XXSP,2013-01-21 22:00:00,
2013-01-21 17:05:00,9.1,-6.9,29.70,WNW,292,1.1,6.9,48,0.00,,,0.00,WUHU21623XXSP,2013-01-21 22:05:00,
2013-01-21 17:10:00,8.8,-7.2,29.70,WSW,247,3.1,3.1,48,0.00,,,0.00,WUHU21623XXSP,2013-01-21 22:10:00,
2013-01-21 17:15:00,8.8,-7.2,29.70,West,270,0.0,3.1,48,0.00,,,0.00,WUHU21623XXSP,2013-01-21 22:15:00,
2013-01-21 17:20:00,8.4,-7.6,29.70,WNW,292,0.0,2.7,48,0.00,,,0.00,WUHU21623XXSP,2013-01-21 22:20:00,
2013-01-21 17:25:00,8.2,-7.8,29.71,West,270,2.7,2.7,48,0.00,,,0.00,WUHU21623XXSP,2013-01-21 22:25:00,
2013-01-21 17:30:00,8.4,-7.6,29.71,WNW,292,1.6,3.8,48,0.00,,,0.00,WUHU21623XXSP,2013-01-21 22:30:00,
2013-01-21 17:35:00,8.2,-7.8,29.71,NNW,337,5.6,5.6,48,0.00,,,0.00,WUHU21623XXSP,2013-01-21 22:35:00,
2013-01-21 17:40:00,8.2,-7.8,29.71,SW,225,4.3,5.8,48,0.00,,,0.00,WUHU21623XXSP,2013-01-21 22:40:00,
2013-01-21 17:45:00,8.1,-7.9,29.72,NW,315,1.1,7.4,48,0.00,,,0.00,WUHU21623XXSP,2013-01-21 22:45:00,
2013-01-21 17:50:00,7.9,-8.0,29.71,WNW,292,1.8,7.4,48,0.00,,,0.00,WUHU21623XXSP,2013-01-21 22:50:00,
2013-01-21 17:55:00,7.7,-8.2,29.72,NNW,337,0.0,1.8,48,0.00,,,0.00,WUHU21623XXSP,2013-01-21 22:55:00,
2013-01-21 18:00:00,7.3,-8.6,29.72,SW,225,4.3,4.3,48,0.00,,,0.00,WUHU21623XXSP,2013-01-21 23:00:00,
2013-01-21 18:05:00,7.2,-8.7,29.72,WNW,292,5.1,5.1,48,0.00,,,0.00,WUHU21623XXSP,2013-01-21 23:05:00,
2013-01-21 18:10:00,7.0,-8.9,29.72,NNW,337,4.9,5.1,48,0.00,,,0.00,WUHU21623XXSP,2013-01-21 23:10:00,
2013-01-21 18:15:00,6.8,-9.1,29.72,West,270,2.7,4.9,48,0.00,,,0.00,WUHU21623XXSP,2013-01-21 23:15:00,
2013-01-21 18:20:00,6.6,-9.2,29.73,SW,225,4.0,4.0,48,0.00,,,0.00,WUHU21623XXSP,2013-01-21 23:20:00,
2013-01-21 18:26:00,6.6,-9.2,29.73,SSW,202,2.2,4.0,48,0.00,,,0.00,WUHU21623XXSP,2013-01-21 23:26:00,
2013-01-21 18:31:00,6.4,-9.4,29.73,WSW,247,0.0,2.2,48,0.00,,,0.00,WUHU21623XXSP,2013-01-21 23:31:00,
2013-01-21 18:36:00,6.3,-9.5,29.74,West,270,2.9,2.9,48,0.00,,,0.00,WUHU21623XXSP,2013-01-21 23:36:00,
2013-01-21 18:41:00,6.3,-9.5,29.73,NNW,337,0.0,4.7,48,0.00,,,0.00,WUHU21623XXSP,2013-01-21 23:41:00,
2013-01-21 18:46:00,6.3,-9.5,29.73,WNW,292,3.6,5.8,48,0.00,,,0.00,WUHU21623XXSP,2013-01-21 23:46:00,
2013-01-21 18:51:00,6.3,-9.5,29.73,WSW,247,1.3,5.8,48,0.00,,,0.00,WUHU21623XXSP,2013-01-21 23:51:00,
2013-01-21 18:56:00,6.3,-9.5,29.74,West,270,0.0,4.3,48,0.00,,,0.00,WUHU21623XXSP,2013-01-21 23:56:00,
2013-01-21 19:01:00,6.3,-9.5,29.73,NNW,337,4.7,4.7,48,0.00,,,0.00,WUHU21623XXSP,2013-01-22 00:01:00,
2013-01-21 19:06:00,5.9,-9.9,29.74,West,270,4.0,4.7,48,0.00,,,0.00,WUHU21623XXSP,2013-01-22 00:06:00,
2013-01-21 19:11:00,5.9,-9.9,29.73,WSW,247,0.0,4.0,48,0.00,,,0.00,WUHU21623XXSP,2013-01-22 00:11:00,
2013-01-21 19:16:00,5.7,-10.1,29.74,WSW,247,2.9,2.9,48,0.00,,,0.00,WUHU21623XXSP,2013-01-22 00:16:00,
2013-01-21 19:21:00,5.4,-10.3,29.74,WNW,292,5.6,5.6,48,0.00,,,0.00,WUHU21623XXSP,2013-01-22 00:21:00,
2013-01-21 19:26:00,5.2,-10.5,29.74,WSW,247,0.0,5.6,48,0.00,,,0.00,WUHU21623XXSP,2013-01-22 00:26:00,
2013-01-21 19:31:00,5.0,-10.7,29.74,WSW,247,4.3,4.3,48,0.00,,,0.00,WUHU21623XXSP,2013-01-22 00:31:00,
2013-01-21 19:36:00,4.8,-10.9,29.74,NNW,337,3.1,4.3,48,0.00,,,0.00,WUHU21623XXSP,2013-01-22 00:36:00,
2013-01-21 19:41:00,4.8,-10.9,29.74,WNW,292,0.0,4.7,48,0.00,,,0.00,WUHU21623XXSP,2013-01-22 00:41:00,
2013-01-21 19:46:00,4.5,-11.2,29.75,WSW,247,1.8,4.7,48,0.00,,,0.00,WUHU21623XXSP,2013-01-22 00:46:00,
2013-01-21 19:51:00,4.6,-11.1,29.74,West,270,0.0,2.9,48,0.00,,,0.00,WUHU21623XXSP,2013-01-22 00:51:00,
2013-01-21 19:56:00,4.5,-11.2,29.75,WNW,292,2.5,2.9,48,0.00,,,0.00,WUHU21623XXSP,2013-01-22 00:56:00,
2013-01-21 20:01:00,4.5,-11.2,29.75,WNW,292,4.5,4.5,48,0.00,,,0.00,WUHU21623XXSP,2013-01-22 01:01:00,
2013-01-21 20:06:00,4.5,-11.2,29.75,WNW,292,5.6,5.6,48,0.00,,,0.00,WUHU21623XXSP,2013-01-22 01:06:00,
2013-01-21 20:11:00,4.5,-11.2,29.75,West,270,0.0,5.6,48,0.00,,,0.00,WUHU21623XXSP,2013-01-22 01:11:00,
2013-01-21 20:16:00,4.6,-11.1,29.75,WNW,292,0.9,2.7,48,0.00,,,0.00,WUHU21623XXSP,2013-01-22 01:16:00,
2013-01-21 20:21:00,4.6,-11.1,29.76,WSW,247,0.0,2.9,48,0.00,,,0.00,WUHU21623XXSP,2013-01-22 01:21:00,
2013-01-21 20:26:00,4.6,-11.1,29.75,WNW,292,3.4,3.4,48,0.00,,,0.00,WUHU21623XXSP,2013-01-22 01:26:00,
2013-01-21 20:31:00,4.3,-11.4,29.76,WNW,292,2.7,7.8,48,0.00,,,0.00,WUHU21623XXSP,2013-01-22 01:31:00,
2013-01-21 20:36:00,4.1,-11.5,29.76,NNW,337,3.8,7.8,48,0.00,,,0.00,WUHU21623XXSP,2013-01-22 01:36:00,
2013-01-21 20:41:00,3.9,-11.7,29.76,SW,225,3.4,3.8,48,0.00,,,0.00,WUHU21623XXSP,2013-01-22 01:41:00,
2013-01-21 20:46:00,3.6,-12.0,29.76,West,270,2.7,5.1,48,0.00,,,0.00,WUHU21623XXSP,2013-01-22 01:46:00,
2013-01-21 20:51:00,3.4,-12.2,29.77,WNW,292,2.7,5.1,48,0.00,,,0.00,WUHU21623XXSP,2013-01-22 01:51:00,
2013-01-21 20:56:00,3.0,-12.6,29.77,NNW,337,0.0,2.9,48,0.00,,,0.00,WUHU21623XXSP,2013-01-22 01:56:00,
2013-01-21 21:01:00,2.7,-12.8,29.77,West,270,2.5,3.6,48,0.00,,,0.00,WUHU21623XXSP,2013-01-22 02:01:00,
2013-01-21 21:06:00,2.7,-12.8,29.77,NNW,337,1.3,4.3,48,0.00,,,0.00,WUHU21623XXSP,2013-01-22 02:06:00,
2013-01-21 21:11:00,2.3,-13.2,29.77,WNW,292,2.9,4.3,48,0.00,,,0.00,WUHU21623XXSP,2013-01-22 02:11:00,
2013-01-21 21:16:00,2.3,-13.2,29.77,WNW,292,3.6,3.6,48,0.00,,,0.00,WUHU21623XXSP,2013-01-22 02:16:00,
2013-01-21 21:21:00,2.3,-13.2,29.77,West,270,1.6,3.6,48,0.00,,,0.00,WUHU21623XXSP,2013-01-22 02:21:00,
2013-01-21 21:26:00,2.1,-13.4,29.78,WNW,292,8.7,8.7,48,0.00,,,0.00,WUHU21623XXSP,2013-01-22 02:26:00,
2013-01-21 21:31:00,1.9,-13.6,29.78,West,270,1.1,8.7,48,0.00,,,0.00,WUHU21623XXSP,2013-01-22 02:31:00,
2013-01-21 21:36:00,1.8,-13.7,29.78,West,270,2.9,2.9,48,0.00,,,0.00,WUHU21623XXSP,2013-01-22 02:36:00,
2013-01-21 21:41:00,1.8,-13.7,29.78,NW,315,0.0,3.6,48,0.00,,,0.00,WUHU21623XXSP,2013-01-22 02:41:00,
2013-01-21 21:46:00,1.6,-13.9,29.79,West,270,2.0,3.6,48,0.00,,,0.00,WUHU21623XXSP,2013-01-22 02:46:00,
2013-01-21 21:51:00,1.6,-13.9,29.79,WNW,292,5.1,5.1,48,0.00,,,0.00,WUHU21623XXSP,2013-01-22 02:51:00,
2013-01-21 21:56:00,1.6,-13.9,29.79,NNW,337,0.0,5.8,48,0.00,,,0.00,WUHU21623XXSP,2013-01-22 02:56:00,
2013-01-21 22:01:00,1.6,-13.9,29.79,WNW,292,1.3,5.8,48,0.00,,,0.00,WUHU21623XXSP,2013-01-22 03:01:00,
2013-01-21 22:06:00,1.6,-13.9,29.79,WNW,292,0.0,3.1,48,0.00,,,0.00,WUHU21623XXSP,2013-01-22 03:06:00,
2013-01-21 22:11:00,1.4,-14.0,29.79,NNW,337,0.0,1.6,48,0.00,,,0.00,WUHU21623XXSP,2013-01-22 03:11:00,
2013-01-21 22:17:00,1.2,-14.2,29.79,North,0,0.0,0.0,48,0.00,,,0.00,WUHU21623XXSP,2013-01-22 03:17:00,
2013-01-21 22:22:00,1.0,-14.4,29.79,West,270,1.1,1.1,48,0.00,,,0.00,WUHU21623XXSP,2013-01-22 03:22:00,
2013-01-21 22:27:00,1.0,-14.4,29.79,WNW,292,2.5,4.7,48,0.00,,,0.00,WUHU21623XXSP,2013-01-22 03:27:00,
2013-01-21 22:32:00,0.9,-14.5,29.79,WNW,292,5.6,5.6,48,0.00,,,0.00,WUHU21623XXSP,2013-01-22 03:32:00,
2013-01-21 22:37:00,0.9,-14.5,29.79,West,270,1.3,5.6,48,0.00,,,0.00,WUHU21623XXSP,2013-01-22 03:37:00,
2013-01-21 22:42:00,0.9,-14.5,29.80,WNW,292,0.0,3.4,48,0.00,,,0.00,WUHU21623XXSP,2013-01-22 03:42:00,
2013-01-21 22:47:00,0.9,-14.5,29.80,WNW,292,0.0,0.0,48,0.00,,,0.00,WUHU21623XXSP,2013-01-22 03:47:00,
2013-01-21 22:52:00,0.5,-14.9,29.80,West,270,0.0,3.1,48,0.00,,,0.00,WUHU21623XXSP,2013-01-22 03:52:00,
2013-01-21 22:57:00,0.5,-14.9,29.80,West,270,0.0,3.1,48,0.00,,,0.00,WUHU21623XXSP,2013-01-22 03:57:00,
2013-01-21 23:02:00,0.5,-14.9,29.80,SW,225,3.6,3.6,48,0.00,,,0.00,WUHU21623XXSP,2013-01-22 04:02:00,
2013-01-21 23:07:00,0.5,-14.9,29.80,WSW,247,0.0,3.6,48,0.00,,,0.00,WUHU21623XXSP,2013-01-22 04:07:00,
2013-01-21 23:12:00,0.5,-14.9,29.80,West,270,0.0,2.5,48,0.00,,,0.00,WUHU21623XXSP,2013-01-22 04:12:00,
2013-01-21 23:17:00,0.3,-15.1,29.80,West,270,3.6,3.6,48,0.00,,,0.00,WUHU21623XXSP,2013-01-22 04:17:00,
2013-01-21 23:22:00,0.3,-15.1,29.81,West,270,0.0,3.6,48,0.00,,,0.00,WUHU21623XXSP,2013-01-22 04:22:00,
2013-01-21 23:27:00,0.3,-15.1,29.81,WNW,292,2.0,2.0,48,0.00,,,0.00,WUHU21623XXSP,2013-01-22 04:27:00,
2013-01-21 23:32:00,0.3,-15.1,29.81,West,270,0.0,2.0,48,0.00,,,0.00,WUHU21623XXSP,2013-01-22 04:32:00,
2013-01-21 23:37:00,0.1,-15.2,29.80,WSW,247,1.8,3.4,48,0.00,,,0.00,WUHU21623XXSP,2013-01-22 04:37:00,
2013-01-21 23:42:00,0.1,-15.2,29.81,West,270,0.0,3.4,48,0.00,,,0.00,WUHU21623XXSP,2013-01-22 04:42:00,
2013-01-21 23:47:00,0.1,-15.2,29.81,West,270,0.0,0.0,48,0.00,,,0.00,WUHU21623XXSP,2013-01-22 04:47:00,
2013-01-21 23:52:00,0.0,-15.3,29.81,West,270,2.2,2.2,48,0.00,,,0.00,WUHU21623XXSP,2013-01-22 04:52:00,
2013-01-21 23:57:00,-0.2,-15.5,29.80,West,270,0.0,2.2,48,0.00,,,0.00,WUHU21623XXSP,2013-01-22 04:57:00,